sensor_id;sensor_type;location;lat;lon;timestamp;P1;durP1;ratioP1;P2;durP2;ratioP2
75285;SDS011;63879;46.064;14.532;2023-04-03T06:02:07;3.63;;;1.48;;
75285;SDS011;63879;46.064;14.532;2023-04-03T06:04:32;2.70;;;1.60;;
75285;SDS011;63879;46.064;14.532;2023-04-03T06:06:57;2.70;;;1.50;;
75285;SDS011;63879;46.064;14.532;2023-04-03T06:09:24;2.78;;;1.65;;
75285;SDS011;63879;46.064;14.532;2023-04-03T06:11:51;3.78;;;1.30;;
75285;SDS011;63879;46.064;14.532;2023-04-03T06:14:17;2.47;;;1.58;;
75285;SDS011;63879;46.064;14.532;2023-04-03T06:16:42;3.50;;;1.70;;
75285;SDS011;63879;46.064;14.532;2023-04-03T06:19:08;4.25;;;1.60;;
75285;SDS011;63879;46.064;14.532;2023-04-03T06:21:34;3.22;;;1.60;;
75285;SDS011;63879;46.064;14.532;2023-04-03T06:24:00;3.28;;;1.52;;
75285;SDS011;63879;46.064;14.532;2023-04-03T06:26:27;3.83;;;2.65;;
75285;SDS011;63879;46.064;14.532;2023-04-03T06:28:53;2.50;;;1.45;;
75285;SDS011;63879;46.064;14.532;2023-04-03T06:31:18;2.63;;;1.43;;
75285;SDS011;63879;46.064;14.532;2023-04-03T06:33:44;2.92;;;1.50;;
75285;SDS011;63879;46.064;14.532;2023-04-03T06:36:09;3.60;;;1.80;;
75285;SDS011;63879;46.064;14.532;2023-04-03T06:38:35;2.17;;;1.23;;
75285;SDS011;63879;46.064;14.532;2023-04-03T06:41:00;3.03;;;1.15;;
75285;SDS011;63879;46.064;14.532;2023-04-03T06:43:25;1.33;;;0.82;;
75285;SDS011;63879;46.064;14.532;2023-04-03T06:45:51;2.30;;;1.43;;
75285;SDS011;63879;46.064;14.532;2023-04-03T06:48:17;3.20;;;1.63;;
75285;SDS011;63879;46.064;14.532;2023-04-03T06:50:42;4.33;;;2.00;;
75285;SDS011;63879;46.064;14.532;2023-04-03T06:53:08;3.47;;;1.83;;
75285;SDS011;63879;46.064;14.532;2023-04-03T06:55:33;2.05;;;1.52;;
75285;SDS011;63879;46.064;14.532;2023-04-03T06:57:59;4.15;;;1.80;;
75285;SDS011;63879;46.064;14.532;2023-04-03T07:00:25;3.70;;;1.60;;
75285;SDS011;63879;46.064;14.532;2023-04-03T07:02:51;3.10;;;2.08;;
75285;SDS011;63879;46.064;14.532;2023-04-03T07:05:16;3.80;;;2.05;;
75285;SDS011;63879;46.064;14.532;2023-04-03T07:07:42;1.70;;;1.15;;
75285;SDS011;63879;46.064;14.532;2023-04-03T07:10:08;1.75;;;1.20;;
75285;SDS011;63879;46.064;14.532;2023-04-03T07:12:34;1.80;;;1.45;;
75285;SDS011;63879;46.064;14.532;2023-04-03T07:15:00;3.80;;;1.00;;
75285;SDS011;63879;46.064;14.532;2023-04-03T07:17:25;2.07;;;1.17;;
75285;SDS011;63879;46.064;14.532;2023-04-03T07:19:50;2.17;;;1.37;;
75285;SDS011;63879;46.064;14.532;2023-04-03T07:22:16;2.22;;;1.27;;
75285;SDS011;63879;46.064;14.532;2023-04-03T07:24:42;2.00;;;0.88;;
75285;SDS011;63879;46.064;14.532;2023-04-03T07:27:07;4.00;;;1.80;;
75285;SDS011;63879;46.064;14.532;2023-04-03T07:29:33;2.42;;;1.45;;
75285;SDS011;63879;46.064;14.532;2023-04-03T07:31:59;1.83;;;0.80;;
75285;SDS011;63879;46.064;14.532;2023-04-03T07:34:25;4.25;;;1.50;;
75285;SDS011;63879;46.064;14.532;2023-04-03T07:36:51;1.75;;;0.77;;
75285;SDS011;63879;46.064;14.532;2023-04-03T07:39:16;1.42;;;0.70;;
75285;SDS011;63879;46.064;14.532;2023-04-03T07:41:41;2.03;;;0.73;;
75285;SDS011;63879;46.064;14.532;2023-04-03T07:44:07;1.27;;;0.53;;
75285;SDS011;63879;46.064;14.532;2023-04-03T07:46:35;2.20;;;0.88;;
75285;SDS011;63879;46.064;14.532;2023-04-03T07:49:00;2.83;;;1.00;;
75285;SDS011;63879;46.064;14.532;2023-04-03T07:51:26;1.40;;;0.77;;
75285;SDS011;63879;46.064;14.532;2023-04-03T07:53:51;1.50;;;0.95;;
75285;SDS011;63879;46.064;14.532;2023-04-03T07:56:17;4.03;;;0.80;;
75285;SDS011;63879;46.064;14.532;2023-04-03T07:58:43;1.33;;;0.77;;
75285;SDS011;63879;46.064;14.532;2023-04-03T08:01:08;1.73;;;0.68;;
75285;SDS011;63879;46.064;14.532;2023-04-03T08:03:33;1.08;;;0.85;;
75285;SDS011;63879;46.064;14.532;2023-04-03T08:06:03;3.42;;;0.85;;
75285;SDS011;63879;46.064;14.532;2023-04-03T08:08:30;2.05;;;1.27;;
75285;SDS011;63879;46.064;14.532;2023-04-03T08:10:57;3.15;;;1.38;;
75285;SDS011;63879;46.064;14.532;2023-04-03T08:13:24;2.40;;;0.82;;
75285;SDS011;63879;46.064;14.532;2023-04-03T08:15:50;3.42;;;0.70;;
75285;SDS011;63879;46.064;14.532;2023-04-03T08:18:15;1.80;;;0.85;;
75285;SDS011;63879;46.064;14.532;2023-04-03T08:20:41;2.20;;;0.82;;
75285;SDS011;63879;46.064;14.532;2023-04-03T08:23:07;2.55;;;1.05;;
75285;SDS011;63879;46.064;14.532;2023-04-03T08:25:33;1.70;;;1.13;;
75285;SDS011;63879;46.064;14.532;2023-04-03T08:28:02;3.33;;;1.27;;
75285;SDS011;63879;46.064;14.532;2023-04-03T08:30:27;2.00;;;0.60;;
75285;SDS011;63879;46.064;14.532;2023-04-03T08:32:53;1.80;;;0.88;;
75285;SDS011;63879;46.064;14.532;2023-04-03T08:35:18;0.87;;;0.57;;
75285;SDS011;63879;46.064;14.532;2023-04-03T08:37:45;2.08;;;0.55;;
75285;SDS011;63879;46.064;14.532;2023-04-03T08:40:12;2.00;;;0.82;;
75285;SDS011;63879;46.064;14.532;2023-04-03T08:48:15;1.58;;;0.50;;
75285;SDS011;63879;46.064;14.532;2023-04-03T08:50:49;3.40;;;1.25;;
75285;SDS011;63879;46.064;14.532;2023-04-03T08:53:17;3.35;;;0.32;;
75285;SDS011;63879;46.064;14.532;2023-04-03T08:55:46;1.10;;;0.55;;
75285;SDS011;63879;46.064;14.532;2023-04-03T08:58:16;0.60;;;0.35;;
75285;SDS011;63879;46.064;14.532;2023-04-03T09:03:14;2.13;;;0.80;;
75285;SDS011;63879;46.064;14.532;2023-04-03T09:05:45;1.13;;;0.75;;
75285;SDS011;63879;46.064;14.532;2023-04-03T09:08:28;1.02;;;0.63;;
75285;SDS011;63879;46.064;14.532;2023-04-03T09:13:56;1.98;;;1.10;;
75285;SDS011;63879;46.064;14.532;2023-04-03T09:19:02;1.92;;;0.77;;
75285;SDS011;63879;46.064;14.532;2023-04-03T09:21:44;2.65;;;0.85;;
75285;SDS011;63879;46.064;14.532;2023-04-03T09:24:13;1.30;;;0.83;;
75285;SDS011;63879;46.064;14.532;2023-04-03T09:26:42;1.45;;;0.63;;
75285;SDS011;63879;46.064;14.532;2023-04-03T09:29:10;1.80;;;1.13;;
75285;SDS011;63879;46.064;14.532;2023-04-03T09:31:40;1.45;;;0.80;;
75285;SDS011;63879;46.064;14.532;2023-04-03T09:34:25;1.83;;;0.80;;
75285;SDS011;63879;46.064;14.532;2023-04-03T09:36:53;5.22;;;0.98;;
75285;SDS011;63879;46.064;14.532;2023-04-03T09:39:28;2.97;;;1.05;;
75285;SDS011;63879;46.064;14.532;2023-04-03T09:42:01;2.83;;;0.50;;
75285;SDS011;63879;46.064;14.532;2023-04-03T09:44:32;1.50;;;1.10;;
75285;SDS011;63879;46.064;14.532;2023-04-03T09:47:18;1.15;;;0.52;;
75285;SDS011;63879;46.064;14.532;2023-04-03T09:49:43;1.52;;;0.90;;
75285;SDS011;63879;46.064;14.532;2023-04-03T09:52:17;3.13;;;0.53;;
75285;SDS011;63879;46.064;14.532;2023-04-03T09:54:44;2.20;;;1.10;;
75285;SDS011;63879;46.064;14.532;2023-04-03T09:57:14;1.50;;;0.88;;
75285;SDS011;63879;46.064;14.532;2023-04-03T09:59:58;1.50;;;0.50;;
75285;SDS011;63879;46.064;14.532;2023-04-03T10:05:01;0.43;;;0.20;;
75285;SDS011;63879;46.064;14.532;2023-04-03T10:07:37;1.40;;;0.77;;
75285;SDS011;63879;46.064;14.532;2023-04-03T10:10:15;1.02;;;0.55;;
75285;SDS011;63879;46.064;14.532;2023-04-03T10:12:43;1.38;;;0.52;;
75285;SDS011;63879;46.064;14.532;2023-04-03T10:15:15;3.75;;;0.45;;
75285;SDS011;63879;46.064;14.532;2023-04-03T10:17:57;1.05;;;0.32;;
75285;SDS011;63879;46.064;14.532;2023-04-03T10:26:02;2.30;;;0.70;;
75285;SDS011;63879;46.064;14.532;2023-04-03T10:28:43;2.00;;;0.60;;
75285;SDS011;63879;46.064;14.532;2023-04-03T10:31:25;1.10;;;0.60;;
75285;SDS011;63879;46.064;14.532;2023-04-03T10:46:54;5.80;;;0.73;;
75285;SDS011;63879;46.064;14.532;2023-04-03T10:49:33;4.28;;;0.95;;
75285;SDS011;63879;46.064;14.532;2023-04-03T10:57:44;2.97;;;1.25;;
75285;SDS011;63879;46.064;14.532;2023-04-03T11:00:14;2.13;;;0.60;;
75285;SDS011;63879;46.064;14.532;2023-04-03T11:03:03;0.60;;;0.43;;
75285;SDS011;63879;46.064;14.532;2023-04-03T11:05:39;0.93;;;0.47;;
75285;SDS011;63879;46.064;14.532;2023-04-03T11:08:56;1.67;;;0.52;;
75285;SDS011;63879;46.064;14.532;2023-04-03T11:11:47;0.60;;;0.50;;
75285;SDS011;63879;46.064;14.532;2023-04-03T11:16:27;0.75;;;0.45;;
75285;SDS011;63879;46.064;14.532;2023-04-03T11:19:05;1.58;;;0.70;;
75285;SDS011;63879;46.064;14.532;2023-04-03T11:21:41;2.90;;;1.02;;
75285;SDS011;63879;46.064;14.532;2023-04-03T11:24:15;2.63;;;0.85;;
75285;SDS011;63879;46.064;14.532;2023-04-03T11:26:43;0.93;;;0.77;;
75285;SDS011;63879;46.064;14.532;2023-04-03T11:29:10;1.42;;;0.85;;
75285;SDS011;63879;46.064;14.532;2023-04-03T11:31:56;2.35;;;0.65;;
75285;SDS011;63879;46.064;14.532;2023-04-03T11:36:59;1.88;;;0.52;;
75285;SDS011;63879;46.064;14.532;2023-04-03T11:39:29;4.63;;;1.10;;
75285;SDS011;63879;46.064;14.532;2023-04-03T11:42:12;2.95;;;0.77;;
75285;SDS011;63879;46.064;14.532;2023-04-03T11:44:44;1.55;;;0.70;;
75285;SDS011;63879;46.064;14.532;2023-04-03T11:47:10;1.13;;;0.70;;
75285;SDS011;63879;46.064;14.532;2023-04-03T12:12:01;1.17;;;0.95;;
75285;SDS011;63879;46.064;14.532;2023-04-03T12:14:54;0.93;;;0.43;;
75285;SDS011;63879;46.064;14.532;2023-04-03T12:17:27;1.85;;;0.65;;
75285;SDS011;63879;46.064;14.532;2023-04-03T12:19:54;3.55;;;0.75;;
75285;SDS011;63879;46.064;14.532;2023-04-03T12:22:20;0.70;;;0.40;;
75285;SDS011;63879;46.064;14.532;2023-04-03T12:24:49;1.40;;;0.52;;
75285;SDS011;63879;46.064;14.532;2023-04-03T12:30:26;1.15;;;0.93;;
75285;SDS011;63879;46.064;14.532;2023-04-03T12:32:58;1.15;;;0.77;;
75285;SDS011;63879;46.064;14.532;2023-04-03T12:35:56;1.02;;;0.65;;
75285;SDS011;63879;46.064;14.532;2023-04-03T12:50:17;1.10;;;0.65;;
75285;SDS011;63879;46.064;14.532;2023-04-03T12:52:47;1.45;;;0.40;;
75285;SDS011;63879;46.064;14.532;2023-04-03T12:55:17;2.65;;;0.90;;
75285;SDS011;63879;46.064;14.532;2023-04-03T12:57:43;1.63;;;0.60;;
75285;SDS011;63879;46.064;14.532;2023-04-03T13:00:19;1.40;;;0.73;;
75285;SDS011;63879;46.064;14.532;2023-04-03T13:02:54;2.65;;;0.93;;
75285;SDS011;63879;46.064;14.532;2023-04-03T13:05:20;6.78;;;1.05;;
75285;SDS011;63879;46.064;14.532;2023-04-03T13:07:52;3.38;;;0.75;;
75285;SDS011;63879;46.064;14.532;2023-04-03T13:10:22;4.82;;;0.75;;
75285;SDS011;63879;46.064;14.532;2023-04-03T13:12:51;5.80;;;0.97;;
75285;SDS011;63879;46.064;14.532;2023-04-03T13:15:19;4.00;;;1.27;;
75285;SDS011;63879;46.064;14.532;2023-04-03T13:21:13;1.08;;;0.35;;
75285;SDS011;63879;46.064;14.532;2023-04-03T13:23:40;2.55;;;0.70;;
75285;SDS011;63879;46.064;14.532;2023-04-03T13:26:08;1.88;;;0.73;;
75285;SDS011;63879;46.064;14.532;2023-04-03T13:28:34;1.65;;;0.93;;
75285;SDS011;63879;46.064;14.532;2023-04-03T13:33:27;1.70;;;1.02;;
75285;SDS011;63879;46.064;14.532;2023-04-03T13:36:02;11.00;;;2.25;;
75285;SDS011;63879;46.064;14.532;2023-04-03T13:38:31;1.55;;;0.45;;
75285;SDS011;63879;46.064;14.532;2023-04-03T13:40:59;1.45;;;0.32;;
75285;SDS011;63879;46.064;14.532;2023-04-03T13:43:28;5.00;;;0.50;;
75285;SDS011;63879;46.064;14.532;2023-04-03T13:45:56;3.00;;;0.93;;
75285;SDS011;63879;46.064;14.532;2023-04-03T13:48:48;1.25;;;0.52;;
75285;SDS011;63879;46.064;14.532;2023-04-03T13:53:47;1.70;;;0.43;;
75285;SDS011;63879;46.064;14.532;2023-04-03T14:01:46;1.25;;;0.50;;
75285;SDS011;63879;46.064;14.532;2023-04-03T14:04:55;1.23;;;0.22;;
75285;SDS011;63879;46.064;14.532;2023-04-03T14:07:25;1.15;;;0.43;;
75285;SDS011;63879;46.064;14.532;2023-04-03T14:09:51;1.48;;;0.73;;
75285;SDS011;63879;46.064;14.532;2023-04-03T14:14:45;2.60;;;0.43;;
75285;SDS011;63879;46.064;14.532;2023-04-03T14:17:15;4.88;;;0.38;;
75285;SDS011;63879;46.064;14.532;2023-04-03T14:19:42;2.58;;;0.50;;
75285;SDS011;63879;46.064;14.532;2023-04-03T14:22:23;2.47;;;0.52;;
75285;SDS011;63879;46.064;14.532;2023-04-03T14:24:53;1.23;;;0.50;;
75285;SDS011;63879;46.064;14.532;2023-04-03T14:27:29;2.20;;;0.63;;
75285;SDS011;63879;46.064;14.532;2023-04-03T14:30:07;0.43;;;0.30;;
75285;SDS011;63879;46.064;14.532;2023-04-03T14:32:36;2.00;;;0.63;;
75285;SDS011;63879;46.064;14.532;2023-04-03T14:35:02;8.15;;;0.55;;
75285;SDS011;63879;46.064;14.532;2023-04-03T14:37:29;1.10;;;0.52;;
75285;SDS011;63879;46.064;14.532;2023-04-03T14:39:56;1.05;;;0.45;;
75285;SDS011;63879;46.064;14.532;2023-04-03T14:42:24;2.25;;;0.50;;
75285;SDS011;63879;46.064;14.532;2023-04-03T14:44:53;3.50;;;0.52;;
75285;SDS011;63879;46.064;14.532;2023-04-03T14:47:20;0.90;;;0.67;;
75285;SDS011;63879;46.064;14.532;2023-04-03T14:49:48;1.95;;;0.45;;
75285;SDS011;63879;46.064;14.532;2023-04-03T14:52:22;1.53;;;0.30;;
75285;SDS011;63879;46.064;14.532;2023-04-03T14:54:48;3.45;;;0.52;;
75285;SDS011;63879;46.064;14.532;2023-04-03T18:10:45;2.20;;;1.17;;
75285;SDS011;63879;46.064;14.532;2023-04-03T18:13:10;2.40;;;1.15;;
75285;SDS011;63879;46.064;14.532;2023-04-03T18:15:36;4.70;;;1.30;;
75285;SDS011;63879;46.064;14.532;2023-04-03T18:18:07;3.05;;;1.35;;
75285;SDS011;63879;46.064;14.532;2023-04-03T18:20:34;1.77;;;1.02;;
75285;SDS011;63879;46.064;14.532;2023-04-03T18:22:59;1.77;;;1.10;;
75285;SDS011;63879;46.064;14.532;2023-04-03T18:25:25;3.00;;;1.40;;
75285;SDS011;63879;46.064;14.532;2023-04-03T18:27:50;1.93;;;1.00;;
75285;SDS011;63879;46.064;14.532;2023-04-03T18:30:17;1.85;;;1.15;;
75285;SDS011;63879;46.064;14.532;2023-04-03T18:32:42;3.30;;;1.00;;
75285;SDS011;63879;46.064;14.532;2023-04-03T18:35:08;2.53;;;1.15;;
75285;SDS011;63879;46.064;14.532;2023-04-03T18:37:34;3.13;;;1.58;;
75285;SDS011;63879;46.064;14.532;2023-04-03T18:39:59;2.42;;;1.25;;
75285;SDS011;63879;46.064;14.532;2023-04-03T18:42:26;7.00;;;2.45;;
75285;SDS011;63879;46.064;14.532;2023-04-03T18:44:53;3.28;;;1.40;;
75285;SDS011;63879;46.064;14.532;2023-04-03T18:47:21;2.33;;;1.10;;
75285;SDS011;63879;46.064;14.532;2023-04-03T18:49:47;4.38;;;1.60;;
75285;SDS011;63879;46.064;14.532;2023-04-03T18:52:12;3.00;;;1.75;;
75285;SDS011;63879;46.064;14.532;2023-04-03T18:54:38;3.83;;;1.40;;
75285;SDS011;63879;46.064;14.532;2023-04-03T18:57:05;1.92;;;1.10;;
75285;SDS011;63879;46.064;14.532;2023-04-03T18:59:30;2.58;;;1.55;;
75285;SDS011;63879;46.064;14.532;2023-04-03T19:01:56;3.60;;;1.35;;
75285;SDS011;63879;46.064;14.532;2023-04-03T19:04:22;2.35;;;1.20;;
75285;SDS011;63879;46.064;14.532;2023-04-03T19:06:47;3.00;;;1.58;;
75285;SDS011;63879;46.064;14.532;2023-04-03T19:09:13;4.40;;;1.42;;
75285;SDS011;63879;46.064;14.532;2023-04-03T19:11:39;3.28;;;1.65;;
75285;SDS011;63879;46.064;14.532;2023-04-03T19:14:05;2.10;;;1.15;;
75285;SDS011;63879;46.064;14.532;2023-04-03T19:16:30;3.42;;;1.70;;
75285;SDS011;63879;46.064;14.532;2023-04-03T19:18:57;3.60;;;1.27;;
75285;SDS011;63879;46.064;14.532;2023-04-03T19:21:23;5.13;;;1.42;;
75285;SDS011;63879;46.064;14.532;2023-04-03T19:23:48;3.55;;;1.45;;
75285;SDS011;63879;46.064;14.532;2023-04-03T19:26:14;3.45;;;1.85;;
75285;SDS011;63879;46.064;14.532;2023-04-03T19:28:39;4.20;;;1.95;;
75285;SDS011;63879;46.064;14.532;2023-04-03T19:31:12;3.05;;;1.10;;
75285;SDS011;63879;46.064;14.532;2023-04-03T19:33:39;3.47;;;1.52;;
75285;SDS011;63879;46.064;14.532;2023-04-03T19:36:06;3.58;;;1.25;;
75285;SDS011;63879;46.064;14.532;2023-04-03T19:38:32;2.78;;;1.35;;
75285;SDS011;63879;46.064;14.532;2023-04-03T19:40:57;4.77;;;2.00;;
75285;SDS011;63879;46.064;14.532;2023-04-03T19:43:23;3.85;;;1.55;;
75285;SDS011;63879;46.064;14.532;2023-04-03T19:45:48;4.03;;;1.92;;
75285;SDS011;63879;46.064;14.532;2023-04-03T19:48:13;4.22;;;2.30;;
75285;SDS011;63879;46.064;14.532;2023-04-03T19:50:39;2.17;;;1.05;;
75285;SDS011;63879;46.064;14.532;2023-04-03T19:53:05;2.95;;;1.02;;
75285;SDS011;63879;46.064;14.532;2023-04-03T19:55:30;2.08;;;1.35;;
75285;SDS011;63879;46.064;14.532;2023-04-03T19:57:59;3.13;;;1.58;;
75285;SDS011;63879;46.064;14.532;2023-04-03T20:00:26;3.58;;;1.75;;
75285;SDS011;63879;46.064;14.532;2023-04-03T20:02:52;4.20;;;1.45;;
75285;SDS011;63879;46.064;14.532;2023-04-03T20:05:18;3.33;;;1.60;;
75285;SDS011;63879;46.064;14.532;2023-04-03T20:07:46;4.38;;;1.90;;
75285;SDS011;63879;46.064;14.532;2023-04-03T20:10:12;2.38;;;1.25;;
75285;SDS011;63879;46.064;14.532;2023-04-03T20:12:38;2.42;;;0.95;;
75285;SDS011;63879;46.064;14.532;2023-04-03T20:15:04;2.50;;;1.30;;
75285;SDS011;63879;46.064;14.532;2023-04-03T20:17:31;2.58;;;1.38;;
75285;SDS011;63879;46.064;14.532;2023-04-03T20:19:57;6.47;;;1.67;;
75285;SDS011;63879;46.064;14.532;2023-04-03T20:22:25;3.05;;;1.35;;
75285;SDS011;63879;46.064;14.532;2023-04-03T20:24:52;4.75;;;1.58;;
75285;SDS011;63879;46.064;14.532;2023-04-03T20:27:17;4.30;;;1.65;;
75285;SDS011;63879;46.064;14.532;2023-04-03T20:29:42;3.97;;;1.20;;
75285;SDS011;63879;46.064;14.532;2023-04-03T20:32:08;4.30;;;1.80;;
75285;SDS011;63879;46.064;14.532;2023-04-03T20:34:35;3.47;;;1.70;;
75285;SDS011;63879;46.064;14.532;2023-04-03T20:37:01;3.42;;;1.60;;
75285;SDS011;63879;46.064;14.532;2023-04-03T20:39:27;2.08;;;1.27;;
75285;SDS011;63879;46.064;14.532;2023-04-03T20:41:53;3.05;;;1.40;;
75285;SDS011;63879;46.064;14.532;2023-04-03T20:44:18;2.55;;;1.23;;
75285;SDS011;63879;46.064;14.532;2023-04-03T20:46:45;2.55;;;1.52;;
75285;SDS011;63879;46.064;14.532;2023-04-03T20:49:11;3.33;;;1.23;;
75285;SDS011;63879;46.064;14.532;2023-04-03T20:51:37;2.88;;;1.40;;
75285;SDS011;63879;46.064;14.532;2023-04-03T20:54:02;2.22;;;1.02;;
75285;SDS011;63879;46.064;14.532;2023-04-03T20:56:29;2.60;;;0.80;;
75285;SDS011;63879;46.064;14.532;2023-04-03T20:58:57;1.80;;;1.17;;
